createdAt,value
2023-05-23T00:00:21.333Z,20.04
2023-05-23T00:01:21.331Z,20.08
2023-05-23T00:02:21.343Z,20.07
2023-05-23T00:03:21.408Z,20.08
2023-05-23T00:04:21.253Z,20.03
2023-05-23T00:05:21.132Z,20.02
2023-05-23T00:06:21.083Z,19.97
2023-05-23T00:07:21.094Z,19.92
2023-05-23T00:08:20.996Z,19.96
2023-05-23T00:09:20.972Z,19.90
2023-05-23T00:10:20.918Z,19.92
2023-05-23T00:11:20.874Z,19.90
2023-05-23T00:12:20.838Z,19.87
2023-05-23T00:13:20.821Z,20.02
2023-05-23T00:14:20.785Z,19.94
2023-05-23T00:15:20.719Z,19.92
2023-05-23T00:16:20.729Z,19.84
2023-05-23T00:17:20.644Z,19.87
2023-05-23T00:18:20.627Z,20.02
2023-05-23T00:19:20.601Z,20.02
2023-05-23T00:20:20.531Z,20.00
2023-05-23T00:21:20.468Z,20.00
2023-05-23T00:22:20.432Z,20.00
2023-05-23T00:23:20.388Z,20.02
2023-05-23T00:24:20.345Z,20.03
2023-05-23T00:25:20.338Z,20.03
2023-05-23T00:26:20.268Z,20.02
2023-05-23T00:27:20.238Z,20.11
2023-05-23T00:28:20.184Z,20.03
2023-05-23T00:29:20.172Z,20.04
2023-05-23T00:30:20.097Z,20.07
2023-05-23T00:31:20.097Z,20.00
2023-05-23T00:32:20.064Z,20.12
2023-05-23T00:33:20.001Z,20.07
2023-05-23T00:34:19.941Z,20.02
2023-05-23T00:35:19.895Z,20.03
2023-05-23T00:36:19.853Z,20.04
2023-05-23T00:37:19.820Z,19.94
2023-05-23T00:38:19.806Z,19.99
2023-05-23T00:39:20.352Z,19.93
2023-05-23T00:40:19.702Z,19.89
2023-05-23T00:41:19.696Z,19.84
2023-05-23T00:42:19.637Z,19.75
2023-05-23T00:43:19.576Z,19.72
2023-05-23T00:44:19.543Z,19.71
2023-05-23T00:45:19.517Z,19.74
2023-05-23T00:46:19.485Z,19.56
2023-05-23T00:47:19.430Z,19.59
2023-05-23T00:48:19.377Z,19.66
2023-05-23T00:49:19.331Z,19.60
2023-05-23T00:50:19.430Z,19.63
2023-05-23T00:51:19.256Z,19.59
2023-05-23T00:52:19.208Z,19.55
2023-05-23T00:53:19.155Z,19.53
2023-05-23T00:54:19.110Z,19.49
2023-05-23T00:55:19.082Z,19.60
2023-05-23T00:56:19.216Z,19.56
2023-05-23T00:57:18.992Z,19.53
2023-05-23T00:58:18.952Z,19.55
2023-05-23T00:59:18.907Z,19.49
2023-05-23T01:00:18.870Z,19.53
2023-05-23T01:01:18.840Z,19.59
2023-05-23T01:02:18.821Z,19.59
2023-05-23T01:03:18.895Z,19.66
2023-05-23T01:04:18.701Z,19.63
2023-05-23T01:05:18.663Z,19.56
2023-05-23T01:06:18.616Z,19.53
2023-05-23T01:07:18.577Z,19.55
2023-05-23T01:08:18.558Z,19.45
2023-05-23T01:09:18.512Z,19.55
2023-05-23T01:10:18.457Z,19.53
2023-05-23T01:11:18.408Z,19.52
2023-05-23T01:12:18.366Z,19.55
2023-05-23T01:13:18.337Z,19.47
2023-05-23T01:14:18.310Z,19.44
2023-05-23T01:15:18.249Z,19.45
2023-05-23T01:16:18.239Z,19.44
2023-05-23T01:17:18.162Z,19.37
2023-05-23T01:18:18.324Z,19.32
2023-05-23T01:19:18.086Z,19.34
2023-05-23T01:20:18.034Z,19.34
2023-05-23T01:21:17.992Z,19.37
2023-05-23T01:22:17.958Z,19.24
2023-05-23T01:23:17.912Z,19.24
2023-05-23T01:24:17.913Z,19.12
2023-05-23T01:25:17.834Z,19.11
2023-05-23T01:26:17.798Z,19.17
2023-05-23T01:27:17.743Z,19.19
2023-05-23T01:28:17.708Z,19.16
2023-05-23T01:29:17.665Z,19.19
2023-05-23T01:30:17.635Z,19.16
2023-05-23T01:31:17.614Z,19.19
2023-05-23T01:32:17.531Z,19.20
2023-05-23T01:33:17.498Z,19.19
2023-05-23T01:34:17.453Z,19.09
2023-05-23T01:35:17.411Z,19.16
2023-05-23T01:36:17.407Z,19.12
2023-05-23T01:37:17.334Z,19.15
2023-05-23T01:38:17.289Z,19.11
2023-05-23T01:39:17.258Z,19.05
2023-05-23T01:40:17.202Z,19.08
2023-05-23T01:41:17.165Z,19.08
2023-05-23T01:42:17.158Z,18.98
2023-05-23T01:43:17.091Z,18.98
2023-05-23T01:44:18.137Z,18.97
2023-05-23T01:45:16.997Z,18.97
2023-05-23T01:46:16.993Z,18.96
2023-05-23T01:47:16.933Z,18.83
2023-05-23T01:48:16.905Z,18.91
2023-05-23T01:49:16.869Z,18.82
2023-05-23T01:50:16.799Z,18.76
2023-05-23T01:51:16.754Z,18.68
2023-05-23T01:52:16.706Z,18.66
2023-05-23T01:53:16.691Z,18.67
2023-05-23T01:54:16.668Z,18.68
2023-05-23T01:55:16.581Z,18.64
2023-05-23T01:56:16.539Z,18.55
2023-05-23T01:57:16.499Z,18.53
2023-05-23T01:58:16.458Z,18.57
2023-05-23T01:59:16.414Z,18.49
2023-05-23T02:00:16.451Z,18.46
2023-05-23T02:01:16.362Z,18.51
2023-05-23T02:02:16.309Z,18.49
2023-05-23T02:03:16.488Z,18.51
2023-05-23T02:04:16.386Z,18.55
2023-05-23T02:05:16.171Z,18.51
2023-05-23T02:06:16.134Z,18.57
2023-05-23T02:07:16.084Z,18.60
2023-05-23T02:08:16.041Z,18.70
2023-05-23T02:09:16.009Z,18.66
2023-05-23T02:10:15.984Z,18.64
2023-05-23T02:11:15.916Z,18.64
2023-05-23T02:12:15.871Z,18.67
2023-05-23T02:13:15.841Z,18.73
2023-05-23T02:14:15.801Z,18.74
2023-05-23T02:15:15.750Z,18.73
2023-05-23T02:16:15.707Z,18.74
2023-05-23T02:17:15.706Z,18.76
2023-05-23T02:18:15.619Z,18.81
2023-05-23T02:19:15.610Z,18.70
2023-05-23T02:20:15.544Z,18.73
2023-05-23T02:21:15.516Z,18.74
2023-05-23T02:22:15.453Z,18.81
2023-05-23T02:23:15.416Z,18.78
2023-05-23T02:24:15.380Z,18.76
2023-05-23T02:25:15.337Z,18.74
2023-05-23T02:26:15.302Z,18.70
2023-05-23T02:27:15.246Z,18.79
2023-05-23T02:28:15.208Z,18.79
2023-05-23T02:29:15.171Z,18.86
2023-05-23T02:30:15.123Z,18.85
2023-05-23T02:31:15.096Z,18.85
2023-05-23T02:32:15.051Z,18.82
2023-05-23T02:33:15.040Z,18.88
2023-05-23T02:34:14.955Z,18.85
2023-05-23T02:35:14.911Z,18.89
2023-05-23T02:36:14.889Z,18.86
2023-05-23T02:37:14.865Z,18.94
2023-05-23T02:38:14.805Z,18.91
2023-05-23T02:39:14.771Z,18.88
2023-05-23T02:40:14.703Z,18.89
2023-05-23T02:41:14.663Z,18.96
2023-05-23T02:42:14.635Z,18.97
2023-05-23T02:43:14.592Z,18.94
2023-05-23T02:44:14.538Z,18.98
2023-05-23T02:45:14.529Z,18.96
2023-05-23T02:46:14.534Z,19.04
2023-05-23T02:47:14.412Z,18.97
2023-05-23T02:48:14.361Z,18.98
2023-05-23T02:49:14.330Z,19.00
2023-05-23T02:50:14.316Z,18.98
2023-05-23T02:51:14.250Z,19.12
2023-05-23T02:52:14.218Z,19.12
2023-05-23T02:53:14.166Z,19.08
2023-05-23T02:54:14.133Z,19.08
2023-05-23T02:55:14.123Z,19.12
2023-05-23T02:56:14.035Z,19.11
2023-05-23T02:57:13.997Z,19.07
2023-05-23T02:58:13.976Z,19.07
2023-05-23T02:59:13.922Z,19.01
2023-05-23T03:00:13.879Z,19.01
2023-05-23T03:01:13.955Z,19.01
2023-05-23T03:02:13.838Z,18.94
2023-05-23T03:03:13.853Z,18.97
2023-05-23T03:04:13.729Z,19.00
2023-05-23T03:05:13.663Z,19.01
2023-05-23T03:06:13.646Z,19.00
2023-05-23T03:07:26.905Z,19.05
2023-05-23T03:08:13.530Z,18.94
2023-05-23T03:09:13.496Z,19.01
2023-05-23T03:10:13.479Z,19.01
2023-05-23T03:11:13.419Z,18.94
2023-05-23T03:12:13.394Z,18.97
2023-05-23T03:13:13.355Z,18.86
2023-05-23T03:14:13.296Z,18.94
2023-05-23T03:15:13.254Z,18.86
2023-05-23T03:16:13.305Z,18.81
2023-05-23T03:17:13.162Z,18.81
2023-05-23T03:18:13.124Z,18.78
2023-05-23T03:19:13.272Z,18.82
2023-05-23T03:20:13.037Z,18.71
2023-05-23T03:21:12.996Z,18.79
2023-05-23T03:22:12.960Z,18.74
2023-05-23T03:23:12.916Z,18.78
2023-05-23T03:24:12.881Z,18.79
2023-05-23T03:25:12.860Z,18.81
2023-05-23T03:26:12.795Z,18.79
2023-05-23T03:27:12.753Z,18.78
2023-05-23T03:28:12.729Z,18.85
2023-05-23T03:29:12.665Z,18.91
2023-05-23T03:30:12.617Z,18.92
2023-05-23T03:31:12.578Z,18.83
2023-05-23T03:32:12.621Z,18.85
2023-05-23T03:33:12.494Z,18.89
2023-05-23T03:34:12.475Z,18.96
2023-05-23T03:35:12.476Z,18.97
2023-05-23T03:36:12.383Z,19.01
2023-05-23T03:37:12.343Z,19.00
2023-05-23T03:38:12.320Z,18.94
2023-05-23T03:39:12.246Z,18.96
2023-05-23T03:40:12.213Z,19.00
2023-05-23T03:41:12.168Z,19.04
2023-05-23T03:42:12.123Z,19.00
2023-05-23T03:43:12.105Z,18.96
2023-05-23T03:44:12.040Z,19.00
2023-05-23T03:45:11.998Z,19.08
2023-05-23T03:46:11.977Z,19.01
2023-05-23T03:47:11.916Z,19.00
2023-05-23T03:48:11.873Z,18.97
2023-05-23T03:49:11.846Z,19.01
2023-05-23T03:50:11.809Z,18.97
2023-05-23T03:51:11.745Z,19.00
2023-05-23T03:52:11.701Z,19.09
2023-05-23T03:53:11.662Z,18.97
2023-05-23T03:54:11.622Z,19.05
2023-05-23T03:55:11.585Z,19.04
2023-05-23T03:56:11.567Z,19.05
2023-05-23T03:57:11.496Z,19.04
2023-05-23T03:58:11.492Z,19.08
2023-05-23T03:59:11.420Z,19.00
2023-05-23T04:00:11.373Z,19.08
2023-05-23T04:01:11.337Z,19.08
2023-05-23T04:02:11.313Z,18.98
2023-05-23T04:03:11.322Z,19.07
2023-05-23T04:04:11.240Z,19.09
2023-05-23T04:05:11.156Z,19.01
2023-05-23T04:06:12.332Z,19.00
2023-05-23T04:07:11.082Z,19.04
2023-05-23T04:08:11.040Z,19.04
2023-05-23T04:09:10.996Z,18.98
2023-05-23T04:10:10.969Z,19.00
2023-05-23T04:11:10.905Z,18.97
2023-05-23T04:12:10.870Z,19.04
2023-05-23T04:13:10.865Z,18.98
2023-05-23T04:14:10.831Z,18.91
2023-05-23T04:15:10.773Z,18.98
2023-05-23T04:16:10.747Z,18.98
2023-05-23T04:17:10.663Z,19.00
2023-05-23T04:18:10.622Z,18.98
2023-05-23T04:19:10.597Z,18.85
2023-05-23T04:20:10.535Z,18.97
2023-05-23T04:21:10.533Z,18.94
2023-05-23T04:22:10.461Z,18.88
2023-05-23T04:23:10.447Z,18.91
2023-05-23T04:24:10.375Z,18.98
2023-05-23T04:25:10.341Z,18.97
2023-05-23T04:26:10.300Z,18.91
2023-05-23T04:27:10.298Z,19.00
2023-05-23T04:28:10.210Z,18.98
2023-05-23T04:29:10.166Z,18.98
2023-05-23T04:30:10.177Z,18.92
2023-05-23T04:31:10.090Z,19.01
2023-05-23T04:32:10.049Z,18.96
2023-05-23T04:33:10.094Z,18.91
2023-05-23T04:34:09.969Z,18.97
2023-05-23T04:35:11.108Z,18.94
2023-05-23T04:36:09.884Z,18.92
2023-05-23T04:37:09.832Z,18.97
2023-05-23T04:38:09.797Z,18.94
2023-05-23T04:39:09.838Z,18.97
2023-05-23T04:40:09.754Z,18.94
2023-05-23T04:41:09.688Z,19.04
2023-05-23T04:42:09.644Z,18.92
2023-05-23T04:43:09.594Z,18.91
2023-05-23T04:44:09.546Z,18.94
2023-05-23T04:45:09.904Z,18.96
2023-05-23T04:46:09.468Z,18.98
2023-05-23T04:47:09.601Z,19.00
2023-05-23T04:48:09.393Z,18.96
2023-05-23T04:49:09.339Z,18.96
2023-05-23T04:50:09.297Z,18.94
2023-05-23T04:51:09.289Z,18.98
2023-05-23T04:52:09.214Z,19.01
2023-05-23T04:53:09.181Z,19.04
2023-05-23T04:54:09.142Z,19.00
2023-05-23T04:55:09.098Z,19.05
2023-05-23T04:56:09.050Z,19.15
2023-05-23T04:57:09.043Z,19.07
2023-05-23T04:58:08.973Z,19.12
2023-05-23T04:59:08.923Z,19.19
2023-05-23T05:00:08.902Z,19.26
2023-05-23T05:01:08.884Z,19.19
2023-05-23T05:02:08.804Z,19.42
2023-05-23T05:03:08.830Z,19.48
2023-05-23T05:04:08.790Z,19.49
2023-05-23T05:05:08.674Z,19.60
2023-05-23T05:06:08.641Z,19.72
2023-05-23T05:07:08.601Z,19.74
2023-05-23T05:08:08.549Z,19.82
2023-05-23T05:09:08.529Z,19.96
2023-05-23T05:10:08.468Z,19.99
2023-05-23T05:11:08.426Z,20.02
2023-05-23T05:12:08.392Z,20.10
2023-05-23T05:13:08.351Z,20.17
2023-05-23T05:14:08.310Z,20.22
2023-05-23T05:15:08.344Z,20.27
2023-05-23T05:16:08.223Z,20.26
2023-05-23T05:17:08.253Z,20.36
2023-05-23T05:18:08.225Z,20.32
2023-05-23T05:19:08.146Z,20.29
2023-05-23T05:20:08.054Z,20.29
2023-05-23T05:21:08.043Z,20.32
2023-05-23T05:22:07.980Z,20.40
2023-05-23T05:23:07.928Z,20.29
2023-05-23T05:24:07.892Z,20.39
2023-05-23T05:25:07.898Z,20.49
2023-05-23T05:26:07.810Z,20.50
2023-05-23T05:27:07.779Z,20.59
2023-05-23T05:28:07.742Z,20.58
2023-05-23T05:29:07.688Z,20.66
2023-05-23T05:30:07.654Z,20.64
2023-05-23T05:31:07.946Z,20.74
2023-05-23T05:32:07.563Z,20.75
2023-05-23T05:33:07.583Z,20.89
2023-05-23T05:34:07.489Z,20.88
2023-05-23T05:35:07.446Z,20.98
2023-05-23T05:36:07.413Z,21.03
2023-05-23T05:37:07.467Z,21.10
2023-05-23T05:38:07.329Z,21.19
2023-05-23T05:39:07.287Z,21.19
2023-05-23T05:40:07.248Z,21.33
2023-05-23T05:41:09.089Z,21.30
2023-05-23T05:42:07.169Z,21.40
2023-05-23T05:43:07.349Z,21.48
2023-05-23T05:44:07.085Z,21.59
2023-05-23T05:45:07.038Z,21.68
2023-05-23T05:46:07.019Z,21.65
2023-05-23T05:47:06.957Z,21.78
2023-05-23T05:48:06.968Z,21.83
2023-05-23T05:49:06.940Z,21.89
2023-05-23T05:50:06.842Z,21.91
2023-05-23T05:51:06.806Z,21.92
2023-05-23T05:52:06.758Z,21.97
2023-05-23T05:53:06.723Z,22.06
2023-05-23T05:54:06.692Z,22.08
2023-05-23T05:55:06.841Z,22.08
2023-05-23T05:56:06.604Z,22.10
2023-05-23T05:57:06.564Z,22.04
2023-05-23T05:58:06.523Z,22.07
2023-05-23T05:59:06.499Z,22.12
2023-05-23T06:03:48.961Z,21.84
2023-05-23T06:04:48.063Z,21.81
2023-05-23T06:05:46.817Z,21.68
2023-05-23T06:06:47.033Z,21.62
2023-05-23T06:07:46.719Z,21.63
2023-05-23T06:08:49.113Z,21.69
2023-05-23T06:09:46.627Z,21.69
2023-05-23T06:10:46.873Z,21.68
2023-05-23T06:11:46.548Z,21.65
2023-05-23T06:12:46.677Z,21.66
2023-05-23T06:13:46.664Z,21.63
2023-05-23T06:14:46.419Z,21.75
2023-05-23T06:15:46.382Z,21.69
2023-05-23T06:16:47.559Z,21.83
2023-05-23T06:17:46.340Z,21.89
2023-05-23T06:18:48.602Z,21.75
2023-05-23T06:19:46.591Z,21.91
2023-05-23T06:20:46.211Z,21.74
2023-05-23T06:21:46.153Z,21.84
2023-05-23T06:22:46.347Z,21.81
2023-05-23T06:23:46.075Z,21.85
2023-05-23T06:24:46.146Z,21.89
2023-05-23T06:25:46.023Z,21.85
2023-05-23T06:26:45.941Z,21.85
2023-05-23T06:27:48.218Z,21.97
2023-05-23T06:28:45.884Z,22.00
2023-05-23T06:29:45.981Z,22.06
2023-05-23T06:30:45.775Z,22.08
2023-05-23T06:31:48.131Z,22.04
2023-05-23T06:32:45.771Z,22.14
2023-05-23T06:33:45.805Z,22.14
2023-05-23T06:34:45.622Z,22.14
2023-05-23T06:35:45.816Z,22.19
2023-05-23T06:36:45.533Z,22.18
2023-05-23T06:37:45.543Z,22.21
2023-05-23T06:38:46.861Z,22.33
2023-05-23T06:39:45.415Z,22.30
2023-05-23T06:40:45.639Z,22.44
2023-05-23T06:41:45.338Z,22.41
2023-05-23T06:42:45.457Z,22.41
2023-05-23T06:43:45.253Z,22.53
2023-05-23T06:44:45.488Z,22.53
2023-05-23T06:45:45.218Z,22.61
2023-05-23T06:46:45.279Z,22.67
2023-05-23T06:47:45.145Z,22.71
2023-05-23T06:48:45.065Z,22.81
2023-05-23T06:49:45.021Z,22.93
2023-05-23T06:50:45.309Z,22.98
2023-05-23T06:51:44.972Z,23.07
2023-05-23T06:52:45.115Z,23.16
2023-05-23T06:53:44.859Z,23.21
2023-05-23T06:54:44.822Z,23.34
2023-05-23T06:55:44.797Z,23.36
2023-05-23T06:56:44.945Z,23.54
2023-05-23T06:57:44.700Z,23.58
2023-05-23T06:58:46.526Z,23.66
2023-05-23T06:59:44.626Z,23.66
2023-05-23T07:00:44.627Z,23.77
2023-05-23T07:01:44.775Z,23.88
2023-05-23T07:02:44.755Z,23.86
2023-05-23T07:03:44.690Z,23.89
2023-05-23T07:04:44.456Z,23.94
2023-05-23T07:05:44.445Z,23.95
2023-05-23T07:06:44.379Z,23.99
2023-05-23T07:07:44.534Z,24.10
2023-05-23T07:08:44.311Z,24.03
2023-05-23T07:09:44.324Z,24.03
2023-05-23T07:10:44.207Z,23.99
2023-05-23T07:11:44.394Z,24.07
2023-05-23T07:12:44.138Z,24.07
2023-05-23T07:13:44.272Z,24.06
2023-05-23T07:14:44.040Z,24.06
2023-05-23T07:15:45.193Z,24.09
2023-05-23T07:16:44.016Z,24.13
2023-05-23T07:17:44.046Z,24.09
2023-05-23T07:18:45.002Z,24.10
2023-05-23T07:19:43.844Z,24.00
2023-05-23T07:20:43.992Z,24.18
2023-05-23T07:21:43.772Z,24.13
2023-05-23T07:22:45.035Z,24.10
2023-05-23T07:23:43.703Z,24.09
2023-05-23T07:25:06.755Z,24.03
2023-05-23T07:25:50.289Z,24.04
2023-05-23T07:26:43.572Z,24.09
2023-05-23T07:27:43.633Z,24.06
2023-05-23T07:28:43.888Z,24.16
2023-05-23T07:29:43.455Z,24.22
2023-05-23T07:30:44.600Z,24.28
2023-05-23T07:31:43.395Z,24.29
2023-05-23T07:32:43.481Z,24.34
2023-05-23T07:33:43.316Z,24.46
2023-05-23T07:34:43.334Z,24.51
2023-05-23T07:35:43.318Z,24.65
2023-05-23T07:36:51.323Z,24.68
2023-05-23T07:37:51.364Z,24.81
2023-05-23T07:38:50.907Z,24.82
2023-05-23T07:39:51.451Z,24.97
2023-05-23T07:40:43.299Z,25.09
2023-05-23T07:41:43.328Z,25.21
2023-05-23T07:42:42.991Z,25.37
2023-05-23T07:43:43.155Z,25.39
2023-05-23T07:44:42.895Z,25.51
2023-05-23T07:45:42.840Z,25.54
2023-05-23T07:46:42.898Z,25.55
2023-05-23T07:47:42.918Z,25.62
2023-05-23T07:48:42.729Z,25.71
2023-05-23T07:49:42.870Z,25.95
2023-05-23T07:50:42.805Z,26.01
2023-05-23T07:51:42.621Z,25.98
2023-05-23T07:52:44.748Z,26.08
2023-05-23T07:53:42.752Z,26.22
2023-05-23T07:54:42.715Z,26.33
2023-05-23T07:55:42.459Z,26.31
2023-05-23T07:56:43.582Z,26.37
2023-05-23T07:57:42.384Z,26.49
2023-05-23T07:58:42.530Z,26.44
2023-05-23T07:59:42.382Z,26.42
2023-05-23T08:00:42.433Z,26.45
2023-05-23T08:01:42.330Z,26.49
2023-05-23T08:02:43.825Z,26.41
2023-05-23T08:03:44.096Z,26.29
2023-05-23T08:04:42.882Z,26.29
2023-05-23T08:05:43.281Z,26.23
2023-05-23T08:06:48.663Z,26.13
2023-05-23T08:07:42.024Z,26.16
2023-05-23T08:08:41.986Z,26.07
2023-05-23T08:09:41.972Z,26.10
2023-05-23T08:10:42.140Z,26.06
2023-05-23T08:11:41.875Z,25.92
2023-05-23T08:12:42.061Z,25.85
2023-05-23T08:13:43.110Z,25.73
2023-05-23T08:14:50.433Z,25.70
2023-05-23T08:15:41.716Z,25.73
2023-05-23T08:17:04.993Z,25.74
2023-05-23T08:17:41.747Z,25.63
2023-05-23T08:18:41.721Z,25.58
2023-05-23T08:19:41.694Z,25.52
2023-05-23T08:20:41.796Z,25.54
2023-05-23T08:21:41.897Z,25.61
2023-05-23T08:22:41.495Z,25.43
2023-05-23T08:23:41.505Z,25.52
2023-05-23T08:24:41.404Z,25.55
2023-05-23T08:25:41.505Z,25.44
2023-05-23T08:26:41.308Z,25.39
2023-05-23T08:27:41.293Z,25.52
2023-05-23T08:28:41.531Z,25.43
2023-05-23T08:29:41.499Z,25.48
2023-05-23T08:30:41.532Z,25.41
2023-05-23T08:31:42.669Z,25.39
2023-05-23T08:32:41.228Z,25.36
2023-05-23T08:33:41.047Z,25.24
2023-05-23T08:34:41.164Z,25.39
2023-05-23T08:35:40.991Z,25.41
2023-05-23T08:36:40.970Z,25.41
2023-05-23T08:37:40.985Z,25.49
2023-05-23T08:38:40.856Z,25.74
2023-05-23T08:39:42.253Z,25.88
2023-05-23T08:40:40.975Z,25.91
2023-05-23T08:41:40.817Z,26.03
2023-05-23T08:42:40.776Z,26.13
2023-05-23T08:43:40.697Z,26.31
2023-05-23T08:44:41.068Z,26.60
2023-05-23T08:45:40.590Z,26.81
2023-05-23T08:46:41.710Z,27.08
2023-05-23T08:47:40.549Z,27.25
2023-05-23T08:48:41.688Z,27.60
2023-05-23T08:49:40.455Z,27.91
2023-05-23T08:50:40.663Z,28.01
2023-05-23T08:51:40.370Z,28.13
2023-05-23T08:52:40.689Z,28.19
2023-05-23T08:53:40.299Z,28.38
2023-05-23T08:54:40.519Z,28.41
2023-05-23T08:55:40.468Z,28.50
2023-05-23T08:56:40.309Z,28.62
2023-05-23T08:57:40.186Z,29.06
2023-05-23T08:58:40.314Z,29.31
2023-05-23T08:59:40.076Z,29.80
2023-05-23T09:00:40.404Z,30.16
2023-05-23T09:01:40.191Z,30.21
2023-05-23T09:02:41.469Z,30.27
2023-05-23T09:03:39.941Z,30.08
2023-05-23T09:04:40.153Z,29.89
2023-05-23T09:05:39.912Z,29.58
2023-05-23T09:06:39.833Z,29.35
2023-05-23T09:07:39.976Z,28.94
2023-05-23T09:08:39.863Z,28.71
2023-05-23T09:09:39.782Z,28.47
2023-05-23T09:10:39.881Z,28.41
2023-05-23T09:11:39.835Z,28.25
2023-05-23T09:12:39.698Z,28.15
2023-05-23T09:13:39.823Z,28.03
2023-05-23T09:14:39.731Z,28.03
2023-05-23T09:15:39.621Z,27.97
2023-05-23T09:16:39.582Z,28.04
2023-05-23T09:17:39.478Z,27.93
2023-05-23T09:18:39.410Z,27.91
2023-05-23T09:19:40.545Z,27.86
2023-05-23T09:20:39.512Z,27.61
2023-05-23T09:21:40.523Z,27.33
2023-05-23T09:22:39.263Z,26.93
2023-05-23T09:23:39.255Z,26.81
2023-05-23T09:24:39.201Z,26.60
2023-05-23T09:25:39.206Z,26.45
2023-05-23T09:26:39.330Z,26.31
2023-05-23T09:27:39.467Z,26.13
2023-05-23T09:29:00.204Z,26.04
2023-05-23T09:29:39.042Z,26.03
2023-05-23T09:30:39.335Z,25.89
2023-05-23T09:31:38.992Z,25.88
2023-05-23T09:32:39.185Z,25.74
2023-05-23T09:33:38.861Z,25.73
2023-05-23T09:34:38.823Z,25.68
2023-05-23T09:35:38.803Z,25.63
2023-05-23T09:36:38.962Z,25.52
2023-05-23T09:37:38.795Z,25.54
2023-05-23T09:38:39.836Z,25.54
2023-05-23T09:39:38.691Z,25.52
2023-05-23T09:40:38.687Z,25.58
2023-05-23T09:41:38.562Z,25.54
2023-05-23T09:42:38.590Z,25.52
2023-05-23T09:43:38.511Z,25.56
2023-05-23T09:44:39.634Z,25.58
2023-05-23T09:45:38.414Z,25.61
2023-05-23T09:46:38.444Z,25.51
2023-05-23T09:47:39.506Z,25.43
2023-05-23T09:48:38.300Z,25.46
2023-05-23T09:49:40.702Z,25.39
2023-05-23T09:50:38.349Z,25.30
2023-05-23T09:51:38.222Z,25.21
2023-05-23T09:52:38.218Z,25.14
2023-05-23T09:53:39.299Z,25.19
2023-05-23T09:54:38.088Z,25.21
2023-05-23T09:55:39.103Z,25.19
2023-05-23T09:56:38.007Z,25.24
2023-05-23T09:57:37.962Z,25.34
2023-05-23T09:58:38.306Z,25.34
2023-05-23T09:59:37.886Z,25.39
2023-05-23T10:00:39.041Z,25.43
2023-05-23T10:01:37.902Z,25.43
2023-05-23T10:02:37.807Z,25.51
2023-05-23T10:03:37.767Z,25.52
2023-05-23T10:04:38.117Z,25.62
2023-05-23T10:05:37.700Z,25.63
2023-05-23T10:06:41.226Z,25.80
2023-05-23T10:07:37.622Z,25.91
2023-05-23T10:08:37.552Z,25.98
2023-05-23T10:09:38.636Z,26.03
2023-05-23T10:10:37.594Z,26.30
2023-05-23T10:11:37.480Z,26.61
2023-05-23T10:12:39.850Z,26.98
2023-05-23T10:13:37.396Z,27.43
2023-05-23T10:14:37.415Z,27.97
2023-05-23T10:15:37.304Z,28.33
2023-05-23T10:16:37.449Z,28.59
2023-05-23T10:17:37.239Z,28.72
2023-05-23T10:18:37.433Z,28.97
2023-05-23T10:19:37.228Z,28.92
2023-05-23T10:20:37.238Z,28.92
2023-05-23T10:21:37.088Z,28.93
2023-05-23T10:22:37.250Z,28.93
2023-05-23T10:23:37.014Z,28.83
2023-05-23T10:24:39.313Z,28.72
2023-05-23T10:25:36.962Z,28.55
2023-05-23T10:26:37.096Z,28.47
2023-05-23T10:27:36.875Z,28.41
2023-05-23T10:28:37.098Z,28.18
2023-05-23T10:29:36.830Z,28.06
2023-05-23T10:30:42.573Z,28.01
2023-05-23T10:31:36.865Z,28.19
2023-05-23T10:32:36.948Z,28.20
2023-05-23T10:33:36.680Z,28.23
2023-05-23T10:34:37.764Z,28.23
2023-05-23T10:35:36.634Z,28.25
2023-05-23T10:36:36.563Z,28.49
2023-05-23T10:37:36.547Z,28.38
2023-05-23T10:40:20.910Z,28.70
2023-05-23T10:41:26.455Z,28.84
2023-05-23T10:42:15.977Z,29.02
2023-05-23T10:43:28.683Z,29.02
2023-05-23T10:44:07.710Z,29.09
2023-05-23T10:45:07.576Z,29.00
2023-05-23T10:46:07.795Z,29.02
2023-05-23T10:47:07.538Z,29.15
2023-05-23T10:48:07.872Z,29.13
2023-05-23T10:49:07.448Z,29.27
2023-05-23T10:50:07.568Z,29.34
2023-05-23T10:51:07.362Z,29.37
2023-05-23T10:52:07.626Z,29.46
2023-05-23T10:53:07.285Z,29.46
2023-05-23T10:54:07.578Z,29.49
2023-05-23T10:55:07.218Z,29.37
2023-05-23T10:56:07.387Z,29.31
2023-05-23T10:57:07.152Z,29.35
2023-05-23T10:58:07.403Z,29.32
2023-05-23T10:59:28.507Z,29.39
2023-05-23T11:00:07.056Z,29.34
2023-05-23T11:01:07.221Z,29.32
2023-05-23T11:02:07.023Z,29.49
2023-05-23T11:03:07.118Z,30.10
2023-05-23T11:04:06.940Z,30.89
2023-05-23T11:05:06.962Z,31.74
2023-05-23T11:06:07.068Z,32.51
2023-05-23T11:07:06.803Z,33.42
2023-05-23T11:08:07.910Z,34.25
2023-05-23T11:09:07.802Z,35.07
2023-05-23T11:10:06.699Z,35.60
2023-05-23T11:11:06.701Z,36.22
2023-05-23T11:12:06.910Z,36.91
2023-05-23T11:13:06.627Z,37.48
2023-05-23T11:14:06.700Z,37.94
2023-05-23T11:15:06.552Z,38.42
2023-05-23T11:16:06.851Z,38.73
2023-05-23T11:17:06.479Z,39.20
2023-05-23T11:18:06.774Z,39.64
2023-05-23T11:19:06.471Z,40.12
2023-05-23T11:20:06.559Z,40.57
2023-05-23T11:21:06.385Z,40.59
2023-05-23T11:22:06.331Z,40.77
2023-05-23T11:23:06.570Z,41.00
2023-05-23T11:24:06.292Z,41.26
2023-05-23T11:25:06.373Z,41.64
2023-05-23T11:26:06.433Z,41.91
2023-05-23T11:27:06.390Z,42.36
2023-05-23T11:28:06.176Z,42.51
2023-05-23T11:29:06.401Z,42.92
2023-05-23T11:30:06.135Z,43.39
2023-05-23T11:31:06.215Z,43.80
2023-05-23T11:32:06.143Z,44.18
2023-05-23T11:33:06.081Z,44.35
2023-05-23T11:34:06.029Z,44.07
2023-05-23T11:35:07.691Z,43.95
2023-05-23T11:36:05.975Z,43.44
2023-05-23T11:37:06.052Z,42.44
2023-05-23T11:38:05.930Z,41.83
2023-05-23T11:39:05.908Z,40.95
2023-05-23T11:40:05.885Z,39.67
2023-05-23T11:41:08.138Z,38.96
2023-05-23T11:42:05.823Z,38.50
2023-05-23T11:43:06.927Z,37.97
2023-05-23T11:44:05.773Z,37.64
2023-05-23T11:45:05.916Z,37.40
2023-05-23T11:46:06.007Z,37.40
2023-05-23T11:47:05.928Z,37.06
2023-05-23T11:48:05.711Z,36.97
2023-05-23T11:49:05.752Z,36.59
2023-05-23T11:50:05.740Z,35.76
2023-05-23T11:51:05.674Z,35.53
2023-05-23T11:52:05.759Z,34.98
2023-05-23T11:53:05.559Z,34.47
2023-05-23T11:54:06.603Z,34.03
2023-05-23T11:55:05.466Z,33.47
2023-05-23T11:56:05.436Z,32.94
2023-05-23T11:57:05.653Z,32.75
2023-05-23T11:58:05.598Z,32.53
2023-05-23T11:59:05.345Z,32.34
2023-05-23T12:00:06.436Z,32.16
2023-05-23T12:01:05.283Z,31.87
2023-05-23T12:02:05.427Z,31.87
2023-05-23T12:03:05.801Z,31.72
2023-05-23T12:04:05.501Z,31.74
2023-05-23T12:05:05.156Z,31.72
2023-05-23T12:06:05.451Z,31.93
2023-05-23T12:07:06.331Z,32.01
2023-05-23T12:08:05.318Z,32.09
2023-05-23T12:09:05.284Z,31.89
2023-05-23T12:10:04.988Z,31.78
2023-05-23T12:11:05.075Z,31.70
2023-05-23T12:12:04.929Z,31.57
2023-05-23T12:13:04.897Z,31.48
2023-05-23T12:14:04.890Z,31.32
2023-05-23T12:15:05.109Z,31.17
2023-05-23T12:16:04.889Z,31.05
2023-05-23T12:17:05.938Z,30.95
2023-05-23T12:18:05.347Z,30.65
2023-05-23T12:19:05.222Z,30.44
2023-05-23T12:20:05.755Z,30.16
2023-05-23T12:21:04.634Z,29.83
2023-05-23T12:22:05.780Z,29.53
2023-05-23T12:23:04.572Z,29.43
2023-05-23T12:24:04.763Z,29.37
2023-05-23T12:25:04.532Z,29.28
2023-05-23T12:26:04.578Z,29.05
2023-05-23T12:27:04.416Z,28.77
2023-05-23T12:28:04.590Z,28.45
2023-05-23T12:29:04.390Z,28.30
2023-05-23T12:30:06.307Z,28.19
2023-05-23T12:31:04.360Z,28.12
2023-05-23T12:32:05.469Z,27.88
2023-05-23T12:33:04.256Z,27.66
2023-05-23T12:34:04.428Z,27.44
2023-05-23T12:35:04.136Z,27.41
2023-05-23T12:36:05.330Z,27.23
2023-05-23T12:37:18.184Z,27.13
2023-05-23T12:38:04.034Z,27.11
2023-05-23T12:39:04.480Z,27.10
2023-05-23T12:40:03.966Z,27.10
2023-05-23T12:41:04.077Z,27.07
2023-05-23T12:42:03.915Z,27.00
2023-05-23T12:43:04.089Z,27.10
2023-05-23T12:44:03.827Z,27.03
2023-05-23T12:45:03.905Z,26.97
2023-05-23T12:46:03.785Z,26.88
2023-05-23T12:47:03.730Z,26.85
2023-05-23T12:48:03.754Z,26.86
2023-05-23T12:49:03.937Z,26.79
2023-05-23T12:50:03.811Z,26.73
2023-05-23T12:51:05.784Z,26.67
2023-05-23T12:52:03.540Z,26.66
2023-05-23T12:53:03.502Z,26.59
2023-05-23T12:54:03.771Z,26.64
2023-05-23T12:55:03.434Z,26.52
2023-05-23T12:56:03.794Z,26.45
2023-05-23T12:57:03.345Z,26.30